createdAt,value
2019-02-17T00:00:59.691Z,3.90
2019-02-17T00:03:29.915Z,4.00
2019-02-17T00:06:00.294Z,4.00
2019-02-17T00:08:30.517Z,4.00
2019-02-17T00:11:00.749Z,3.90
2019-02-17T00:13:31.030Z,3.90
2019-02-17T00:16:01.360Z,3.80
2019-02-17T00:18:31.693Z,3.80
2019-02-17T00:21:01.926Z,3.80
2019-02-17T00:23:32.183Z,3.90
2019-02-17T00:26:02.546Z,4.00
2019-02-17T00:28:32.999Z,3.90
2019-02-17T00:31:32.172Z,4.00
2019-02-17T00:34:02.383Z,4.10
2019-02-17T00:36:33.436Z,4.00
2019-02-17T00:39:04.859Z,3.90
2019-02-17T00:41:35.115Z,3.90
2019-02-17T00:44:05.396Z,3.80
2019-02-17T00:46:36.705Z,3.70
2019-02-17T00:49:06.883Z,3.60
2019-02-17T00:51:37.146Z,3.60
2019-02-17T00:54:07.500Z,3.60
2019-02-17T00:56:37.683Z,3.60
2019-02-17T00:59:10.418Z,3.60
2019-02-17T01:01:39.862Z,3.60
2019-02-17T01:04:10.189Z,3.60
2019-02-17T01:06:40.538Z,3.40
2019-02-17T01:09:10.758Z,3.50
2019-02-17T01:11:41.081Z,3.50
2019-02-17T01:14:11.419Z,3.20
2019-02-17T01:16:41.628Z,3.20
2019-02-17T01:19:11.790Z,3.10
2019-02-17T01:21:42.218Z,3.20
2019-02-17T01:24:12.526Z,3.30
2019-02-17T01:26:42.783Z,3.30
2019-02-17T01:29:20.470Z,3.40
2019-02-17T01:31:46.003Z,3.40
2019-02-17T01:34:16.236Z,3.50
2019-02-17T01:36:47.391Z,3.40
2019-02-17T01:39:17.840Z,3.40
2019-02-17T01:41:48.091Z,3.50
2019-02-17T01:44:18.335Z,3.40
2019-02-17T01:46:48.551Z,3.30
2019-02-17T01:49:18.833Z,3.40
2019-02-17T01:51:49.198Z,3.40
2019-02-17T01:54:19.510Z,3.50
2019-02-17T01:56:49.883Z,3.50
2019-02-17T01:59:30.174Z,3.50
2019-02-17T02:01:52.214Z,3.40
2019-02-17T02:04:22.694Z,3.40
2019-02-17T02:06:53.120Z,3.30
2019-02-17T02:09:23.557Z,3.30
2019-02-17T02:11:53.317Z,3.20
2019-02-17T02:14:23.624Z,3.10
2019-02-17T02:16:53.939Z,3.20
2019-02-17T02:19:24.149Z,3.20
2019-02-17T02:21:54.493Z,3.20
2019-02-17T02:24:24.555Z,3.20
2019-02-17T02:26:54.853Z,3.10
2019-02-17T02:29:25.088Z,3.00
2019-02-17T02:31:55.689Z,3.00
2019-02-17T02:34:25.893Z,2.90
2019-02-17T02:36:57.077Z,2.90
2019-02-17T02:39:27.281Z,2.80
2019-02-17T02:41:57.771Z,2.80
2019-02-17T02:44:28.023Z,2.90
2019-02-17T02:46:58.259Z,2.90
2019-02-17T02:49:28.422Z,3.00
2019-02-17T02:51:58.716Z,3.20
2019-02-17T02:54:29.034Z,3.20
2019-02-17T02:56:59.379Z,3.30
2019-02-17T02:59:29.594Z,3.20
2019-02-17T03:01:59.908Z,3.20
2019-02-17T03:04:30.372Z,2.90
2019-02-17T03:07:01.399Z,2.90
2019-02-17T03:09:31.721Z,2.70
2019-02-17T03:12:02.092Z,2.60
2019-02-17T03:14:32.269Z,2.60
2019-02-17T03:17:02.496Z,2.60
2019-02-17T03:19:32.722Z,2.80
2019-02-17T03:22:02.420Z,2.80
2019-02-17T03:24:32.581Z,2.90
2019-02-17T03:27:02.836Z,3.00
2019-02-17T03:29:34.260Z,3.00
2019-02-17T03:32:04.690Z,3.10
2019-02-17T03:34:34.828Z,3.20
2019-02-17T03:37:06.084Z,3.20
2019-02-17T03:39:36.438Z,3.10
2019-02-17T03:42:06.691Z,3.20
2019-02-17T03:44:37.010Z,3.20
2019-02-17T03:47:07.315Z,3.20
2019-02-17T03:49:37.804Z,3.20
2019-02-17T03:52:08.061Z,3.20
2019-02-17T03:54:38.224Z,3.20
2019-02-17T03:57:08.763Z,3.20
2019-02-17T03:59:39.043Z,3.30
2019-02-17T04:02:09.438Z,3.80
2019-02-17T04:04:39.233Z,3.30
2019-02-17T04:07:09.600Z,3.40
2019-02-17T04:09:39.925Z,3.40
2019-02-17T04:12:10.166Z,3.40
2019-02-17T04:14:40.411Z,3.40
2019-02-17T04:17:10.615Z,3.30
2019-02-17T04:19:40.991Z,3.30
2019-02-17T04:22:11.263Z,3.30
2019-02-17T04:24:41.471Z,3.30
2019-02-17T04:27:11.703Z,3.20
2019-02-17T04:29:41.911Z,3.40
2019-02-17T04:32:12.200Z,3.50
2019-02-17T04:34:42.622Z,3.40
2019-02-17T04:37:15.411Z,3.30
2019-02-17T04:39:45.720Z,3.30
2019-02-17T04:42:16.134Z,3.30
2019-02-17T04:44:46.343Z,3.20
2019-02-17T04:47:16.562Z,3.30
2019-02-17T04:49:46.782Z,3.10
2019-02-17T04:52:17.067Z,3.10
2019-02-17T04:54:47.352Z,3.20
2019-02-17T04:57:17.620Z,3.10
2019-02-17T04:59:47.895Z,3.10
2019-02-17T05:02:18.091Z,3.20
2019-02-17T05:04:48.601Z,3.10
2019-02-17T05:07:18.826Z,3.10
2019-02-17T05:09:49.046Z,3.00
2019-02-17T05:12:19.319Z,3.00
2019-02-17T05:14:49.478Z,3.00
2019-02-17T05:17:19.713Z,3.00
2019-02-17T05:19:50.004Z,3.00
2019-02-17T05:22:20.274Z,2.90
2019-02-17T05:24:50.615Z,2.90
2019-02-17T05:27:20.935Z,2.90
2019-02-17T05:29:51.126Z,2.90
2019-02-17T05:32:21.330Z,2.90
2019-02-17T05:34:51.540Z,2.90
2019-02-17T05:37:23.000Z,2.90
2019-02-17T05:39:53.268Z,2.90
2019-02-17T05:42:23.697Z,2.80
2019-02-17T05:44:53.932Z,2.80
2019-02-17T05:47:24.102Z,2.80
2019-02-17T05:49:54.348Z,2.80
2019-02-17T05:52:24.557Z,2.90
2019-02-17T05:54:54.853Z,2.90
2019-02-17T05:57:25.086Z,2.90
2019-02-17T05:59:55.310Z,3.00
2019-02-17T06:02:25.537Z,3.00
2019-02-17T06:04:55.726Z,3.10
2019-02-17T06:07:26.151Z,3.10
2019-02-17T06:09:56.430Z,3.20
2019-02-17T06:12:26.612Z,3.20
2019-02-17T06:14:56.865Z,3.30
2019-02-17T06:17:26.988Z,3.30
2019-02-17T06:19:57.247Z,3.30
2019-02-17T06:22:27.395Z,3.20
2019-02-17T06:24:57.621Z,3.30
2019-02-17T06:27:27.995Z,3.40
2019-02-17T06:29:58.228Z,3.40
2019-02-17T06:32:28.385Z,3.50
2019-02-17T06:34:58.617Z,3.40
2019-02-17T06:37:28.923Z,3.40
2019-02-17T06:39:59.199Z,3.40
2019-02-17T06:42:29.420Z,3.50
2019-02-17T06:44:59.817Z,3.50
2019-02-17T06:47:31.227Z,3.50
2019-02-17T06:50:01.564Z,3.50
2019-02-17T06:52:31.793Z,3.50
2019-02-17T06:55:18.891Z,3.60
2019-02-17T06:57:49.183Z,3.60
2019-02-17T07:00:24.099Z,3.70
2019-02-17T07:02:54.314Z,3.80
2019-02-17T07:05:32.190Z,3.80
2019-02-17T07:08:02.438Z,3.90
2019-02-17T07:10:32.585Z,4.10
2019-02-17T07:13:02.760Z,4.30
2019-02-17T07:15:32.966Z,4.30
2019-02-17T07:18:03.227Z,4.40
2019-02-17T07:20:33.435Z,4.40
2019-02-17T07:23:03.707Z,4.60
2019-02-17T07:25:34.044Z,4.80
2019-02-17T07:28:04.343Z,5.00
2019-02-17T07:30:34.623Z,5.00
2019-02-17T07:33:04.803Z,5.10
2019-02-17T07:35:35.046Z,5.10
2019-02-17T07:38:06.439Z,5.20
2019-02-17T07:40:37.120Z,5.40
2019-02-17T07:43:07.467Z,5.40
2019-02-17T07:45:37.955Z,5.40
2019-02-17T07:48:08.189Z,5.30
2019-02-17T07:50:38.450Z,5.30
2019-02-17T07:53:08.797Z,5.50
2019-02-17T07:55:39.000Z,5.70
2019-02-17T07:58:09.691Z,5.70
2019-02-17T08:00:40.265Z,5.80
2019-02-17T08:03:12.443Z,5.90
2019-02-17T08:05:42.667Z,6.10
2019-02-17T08:08:13.295Z,6.40
2019-02-17T08:10:43.847Z,6.40
2019-02-17T08:13:14.096Z,6.50
2019-02-17T08:15:44.392Z,6.50
2019-02-17T08:18:14.615Z,6.60
2019-02-17T08:20:44.823Z,6.70
2019-02-17T08:23:15.443Z,6.70
2019-02-17T08:25:45.692Z,6.70
2019-02-17T08:28:15.992Z,6.80
2019-02-17T08:30:46.157Z,6.90
2019-02-17T08:33:16.493Z,7.30
2019-02-17T08:35:46.993Z,7.50
2019-02-17T08:38:18.098Z,7.60
2019-02-17T08:40:48.538Z,7.70
2019-02-17T08:43:18.885Z,7.80
2019-02-17T08:45:49.066Z,7.90
2019-02-17T08:48:19.273Z,7.90
2019-02-17T08:50:49.595Z,8.00
2019-02-17T08:53:19.903Z,8.20
2019-02-17T08:55:51.306Z,8.30
2019-02-17T08:58:21.480Z,8.40
2019-02-17T09:00:51.779Z,8.60
2019-02-17T09:03:22.041Z,8.70
2019-02-17T09:05:52.288Z,8.90
2019-02-17T09:08:22.436Z,8.90
2019-02-17T09:10:52.907Z,8.90
2019-02-17T09:13:23.322Z,9.10
2019-02-17T09:15:53.645Z,9.40
2019-02-17T09:18:23.921Z,9.50
2019-02-17T09:20:54.857Z,9.60
2019-02-17T09:23:25.270Z,9.70
2019-02-17T09:25:55.526Z,9.50
2019-02-17T09:28:25.761Z,9.50
2019-02-17T09:30:56.147Z,9.50
2019-02-17T09:33:26.503Z,9.70
2019-02-17T09:35:56.704Z,9.80
2019-02-17T09:38:27.803Z,10.00
2019-02-17T09:40:58.109Z,10.10
2019-02-17T09:43:28.595Z,10.10
2019-02-17T09:45:58.863Z,10.20
2019-02-17T09:48:29.242Z,10.30
2019-02-17T09:50:59.537Z,10.50
2019-02-17T09:53:29.906Z,10.60
2019-02-17T09:56:00.487Z,10.80
2019-02-17T09:58:30.711Z,10.90
2019-02-17T10:01:01.104Z,11.20
2019-02-17T10:03:31.418Z,11.40
2019-02-17T10:06:01.681Z,11.70
2019-02-17T10:08:31.838Z,12.00
2019-02-17T10:11:02.129Z,14.70
2019-02-17T10:13:32.351Z,17.20
2019-02-17T10:16:02.572Z,17.10
2019-02-17T10:18:32.799Z,18.80
2019-02-17T10:21:03.023Z,20.50
2019-02-17T10:23:33.397Z,20.50
2019-02-17T10:26:03.672Z,19.70
2019-02-17T10:28:42.141Z,20.30
2019-02-17T10:31:05.869Z,20.30
2019-02-17T10:33:36.118Z,20.50
2019-02-17T10:36:06.403Z,19.80
2019-02-17T10:38:37.531Z,19.70
2019-02-17T10:41:07.912Z,20.10
2019-02-17T10:43:38.292Z,21.10
2019-02-17T10:46:08.518Z,23.00
2019-02-17T10:48:39.062Z,20.50
2019-02-17T10:51:09.720Z,20.70
2019-02-17T10:53:40.062Z,21.20
2019-02-17T10:56:10.282Z,22.40
2019-02-17T10:58:40.502Z,23.80
2019-02-17T11:01:10.859Z,25.70
2019-02-17T11:03:42.792Z,24.20
2019-02-17T11:06:13.116Z,23.00
2019-02-17T11:08:43.403Z,20.80
2019-02-17T11:11:13.623Z,21.10
2019-02-17T11:13:43.787Z,21.00
2019-02-17T11:16:14.008Z,21.10
2019-02-17T11:18:44.368Z,21.40
2019-02-17T11:21:14.841Z,21.60
2019-02-17T11:23:45.182Z,21.60
2019-02-17T11:26:15.414Z,21.00
2019-02-17T11:28:45.666Z,18.90
2019-02-17T11:31:15.955Z,18.30
2019-02-17T11:33:47.267Z,18.30
2019-02-17T11:36:17.688Z,18.00
2019-02-17T11:38:48.823Z,17.70
2019-02-17T11:41:19.071Z,17.70
2019-02-17T11:43:49.303Z,17.70
2019-02-17T11:46:19.525Z,17.30
2019-02-17T11:48:50.176Z,16.90
2019-02-17T11:51:20.529Z,16.80
2019-02-17T11:53:50.945Z,17.90
2019-02-17T11:56:21.154Z,18.40
2019-02-17T11:58:51.407Z,18.10
2019-02-17T12:01:21.792Z,18.00
2019-02-17T12:03:52.238Z,17.70
2019-02-17T12:06:22.499Z,17.80
2019-02-17T12:08:53.175Z,17.90
2019-02-17T12:11:23.331Z,18.10
2019-02-17T12:13:53.605Z,17.90
2019-02-17T12:16:24.117Z,17.30
2019-02-17T12:18:54.462Z,17.00
2019-02-17T12:21:38.935Z,17.20
2019-02-17T12:24:14.139Z,17.70
2019-02-17T12:26:51.990Z,20.40
2019-02-17T12:29:29.942Z,22.60
2019-02-17T12:32:00.369Z,23.30
2019-02-17T12:34:31.101Z,24.10
2019-02-17T12:37:01.364Z,23.40
2019-02-17T12:39:32.951Z,25.20
2019-02-17T12:42:03.244Z,26.20
2019-02-17T12:44:35.581Z,26.50
2019-02-17T12:47:06.145Z,25.40
2019-02-17T12:49:36.689Z,23.70
2019-02-17T12:52:07.037Z,24.10
2019-02-17T12:54:37.299Z,24.90
2019-02-17T12:57:07.588Z,24.90
2019-02-17T12:59:37.745Z,23.00
2019-02-17T13:02:08.258Z,25.30
2019-02-17T13:04:38.505Z,24.30
2019-02-17T13:07:08.932Z,25.40
2019-02-17T13:09:39.372Z,24.20
2019-02-17T13:12:09.671Z,23.90
2019-02-17T13:14:39.903Z,25.20
2019-02-17T13:17:09.903Z,24.60
2019-02-17T13:19:41.404Z,24.00
2019-02-17T13:22:11.771Z,22.80
2019-02-17T13:24:42.015Z,22.10
2019-02-17T13:27:11.959Z,22.40
2019-02-17T13:29:42.277Z,24.90
2019-02-17T13:32:12.731Z,23.90
2019-02-17T13:34:42.624Z,25.70
2019-02-17T13:37:13.092Z,25.00
2019-02-17T13:39:43.773Z,25.40
2019-02-17T13:42:13.770Z,23.40
2019-02-17T13:44:43.608Z,24.90
2019-02-17T13:47:13.876Z,25.20
2019-02-17T13:49:43.765Z,26.30
2019-02-17T13:52:13.675Z,25.40
2019-02-17T13:54:43.723Z,25.80
2019-02-17T13:57:13.758Z,24.80
2019-02-17T13:59:44.099Z,24.50
2019-02-17T14:02:14.003Z,24.10
2019-02-17T14:04:43.992Z,22.70
2019-02-17T14:07:13.963Z,21.60
2019-02-17T14:09:43.928Z,22.00
2019-02-17T14:12:14.203Z,23.50
2019-02-17T14:14:44.163Z,25.10
2019-02-17T14:17:14.235Z,25.00
2019-02-17T14:19:44.125Z,24.00
2019-02-17T14:22:14.060Z,22.80
2019-02-17T14:24:44.039Z,22.30
2019-02-17T14:27:13.993Z,21.00
2019-02-17T14:29:43.869Z,19.90
2019-02-17T14:32:14.303Z,20.50
2019-02-17T14:34:44.479Z,20.20
2019-02-17T14:37:14.649Z,20.90
2019-02-17T14:39:44.785Z,22.00
2019-02-17T14:42:14.812Z,21.90
2019-02-17T14:44:44.741Z,21.30
2019-02-17T14:47:15.061Z,22.60
2019-02-17T14:49:45.747Z,21.80
2019-02-17T14:52:16.043Z,22.10
2019-02-17T14:54:47.307Z,21.90
2019-02-17T14:57:17.555Z,21.00
2019-02-17T14:59:47.850Z,20.30
2019-02-17T15:02:18.083Z,19.50
2019-02-17T15:04:48.293Z,19.60
2019-02-17T15:07:18.519Z,19.60
2019-02-17T15:09:48.673Z,18.80
2019-02-17T15:12:18.956Z,18.40
2019-02-17T15:14:49.344Z,18.60
2019-02-17T15:17:19.887Z,18.30
2019-02-17T15:19:50.281Z,17.80
2019-02-17T15:22:20.626Z,17.20
2019-02-17T15:24:50.779Z,17.20
2019-02-17T15:27:21.071Z,16.90
2019-02-17T15:29:51.268Z,16.50
2019-02-17T15:32:21.643Z,16.00
2019-02-17T15:34:52.071Z,15.70
2019-02-17T15:37:22.776Z,15.50
2019-02-17T15:39:53.880Z,15.20
2019-02-17T15:42:24.139Z,15.10
2019-02-17T15:44:54.340Z,15.00
2019-02-17T15:47:24.571Z,14.80
2019-02-17T15:49:57.436Z,14.70
2019-02-17T15:52:27.664Z,14.50
2019-02-17T15:54:57.872Z,14.30
2019-02-17T15:57:28.158Z,14.20
2019-02-17T15:59:58.442Z,14.10
2019-02-17T16:02:28.671Z,13.90
2019-02-17T16:04:58.878Z,14.00
2019-02-17T16:07:29.448Z,13.70
2019-02-17T16:09:59.831Z,13.60
2019-02-17T16:12:31.039Z,13.50
2019-02-17T16:15:01.205Z,13.40
2019-02-17T16:17:31.451Z,13.30
2019-02-17T16:20:01.888Z,13.30
2019-02-17T16:22:32.212Z,13.30
2019-02-17T16:25:02.501Z,13.20
2019-02-17T16:27:32.911Z,13.00
2019-02-17T16:30:03.256Z,13.00
2019-02-17T16:32:33.747Z,12.80
2019-02-17T16:35:04.217Z,12.70
2019-02-17T16:37:34.549Z,12.60
2019-02-17T16:40:06.421Z,12.50
2019-02-17T16:42:36.856Z,12.50
2019-02-17T16:45:12.965Z,12.40
2019-02-17T16:47:43.903Z,12.30
2019-02-17T16:50:22.925Z,12.20
2019-02-17T16:52:53.455Z,12.00
2019-02-17T16:55:23.786Z,11.90
2019-02-17T16:57:54.094Z,11.70
2019-02-17T17:00:26.041Z,11.30
2019-02-17T17:02:57.039Z,11.00
2019-02-17T17:05:27.351Z,10.90
2019-02-17T17:07:57.651Z,10.90
2019-02-17T17:10:27.922Z,10.80
2019-02-17T17:12:58.162Z,10.70
2019-02-17T17:15:28.488Z,10.70
2019-02-17T17:17:58.767Z,10.60
2019-02-17T17:20:29.183Z,10.60
2019-02-17T17:22:59.487Z,10.50
2019-02-17T17:25:29.763Z,10.50
2019-02-17T17:27:59.995Z,10.50
2019-02-17T17:30:30.202Z,10.40
2019-02-17T17:33:00.544Z,10.40
2019-02-17T17:35:30.811Z,10.30
2019-02-17T17:38:00.879Z,10.20
2019-02-17T17:40:31.083Z,10.20
2019-02-17T17:43:02.402Z,10.20
2019-02-17T17:45:32.647Z,10.00
2019-02-17T17:48:02.784Z,9.90
2019-02-17T17:50:33.115Z,9.80
2019-02-17T17:53:03.287Z,9.70
2019-02-17T17:55:33.545Z,9.60
2019-02-17T17:58:03.706Z,9.60
2019-02-17T18:00:35.654Z,9.60
2019-02-17T18:03:05.929Z,9.50
2019-02-17T18:05:36.183Z,9.50
2019-02-17T18:08:06.388Z,9.50
2019-02-17T18:10:36.600Z,9.30
2019-02-17T18:13:06.800Z,9.10
2019-02-17T18:15:37.079Z,8.90
2019-02-17T18:18:07.411Z,8.80
2019-02-17T18:20:37.632Z,8.80
2019-02-17T18:23:07.875Z,8.70
2019-02-17T18:25:38.071Z,8.70
2019-02-17T18:28:08.387Z,8.70
2019-02-17T18:30:38.609Z,8.50
2019-02-17T18:33:08.971Z,8.40
2019-02-17T18:35:39.215Z,8.30
2019-02-17T18:38:09.430Z,8.30
2019-02-17T18:40:44.948Z,8.30
2019-02-17T18:43:14.970Z,8.30
2019-02-17T18:45:45.172Z,8.20
2019-02-17T18:48:15.435Z,8.10
2019-02-17T18:50:45.851Z,8.00
2019-02-17T18:53:16.607Z,8.00
2019-02-17T18:55:47.025Z,8.20
2019-02-17T18:58:17.616Z,8.30
2019-02-17T19:00:47.878Z,8.10
2019-02-17T19:03:18.128Z,8.00
2019-02-17T19:05:48.569Z,7.80
2019-02-17T19:08:18.947Z,7.70
2019-02-17T19:10:49.125Z,7.60
2019-02-17T19:13:19.359Z,7.40
2019-02-17T19:15:49.699Z,7.30
2019-02-17T19:18:20.023Z,7.10
2019-02-17T19:20:50.306Z,7.00
2019-02-17T19:23:20.699Z,6.90
2019-02-17T19:25:52.065Z,6.80
2019-02-17T19:28:22.359Z,6.70
2019-02-17T19:30:52.738Z,6.60
2019-02-17T19:33:23.029Z,6.60
2019-02-17T19:35:53.483Z,6.50
2019-02-17T19:38:24.093Z,6.50
2019-02-17T19:40:54.368Z,6.40
2019-02-17T19:43:25.790Z,6.30
2019-02-17T19:45:56.034Z,6.40
2019-02-17T19:48:26.303Z,6.40
2019-02-17T19:50:56.944Z,6.40
2019-02-17T19:53:27.296Z,6.40
2019-02-17T19:55:58.599Z,6.30
2019-02-17T19:58:28.963Z,6.20
2019-02-17T20:00:59.243Z,6.10
2019-02-17T20:03:33.950Z,6.00
2019-02-17T20:06:05.832Z,6.00
2019-02-17T20:08:36.182Z,6.10
2019-02-17T20:11:06.673Z,6.00
2019-02-17T20:13:37.698Z,5.90
2019-02-17T20:16:08.240Z,5.80
2019-02-17T20:18:38.577Z,5.70
2019-02-17T20:21:08.876Z,5.60
2019-02-17T20:23:39.195Z,5.50
2019-02-17T20:26:09.491Z,5.50
2019-02-17T20:28:43.349Z,5.60
2019-02-17T20:31:11.484Z,5.50
2019-02-17T20:33:41.729Z,5.50
2019-02-17T20:36:12.256Z,5.60
2019-02-17T20:38:42.581Z,5.60
2019-02-17T20:41:12.916Z,5.40
2019-02-17T20:43:44.147Z,5.20
2019-02-17T20:46:14.446Z,5.20
2019-02-17T20:48:44.692Z,5.20
2019-02-17T20:51:15.068Z,5.10
2019-02-17T20:53:45.462Z,5.20
2019-02-17T20:56:15.725Z,5.10
2019-02-17T20:58:45.990Z,5.20
2019-02-17T21:01:16.670Z,5.10
2019-02-17T21:03:46.929Z,5.10
2019-02-17T21:06:17.224Z,5.10
2019-02-17T21:08:47.346Z,5.10
2019-02-17T21:11:17.744Z,5.10
2019-02-17T21:13:47.995Z,5.00
2019-02-17T21:16:18.696Z,4.70
2019-02-17T21:18:49.278Z,4.40
2019-02-17T21:21:19.600Z,4.30
2019-02-17T21:23:49.864Z,4.30
2019-02-17T21:26:26.005Z,4.50
2019-02-17T21:28:51.973Z,4.40
2019-02-17T21:31:22.640Z,4.60
2019-02-17T21:33:53.340Z,4.80
2019-02-17T21:36:23.767Z,4.80
2019-02-17T21:38:53.992Z,4.70
2019-02-17T21:41:24.331Z,4.50
2019-02-17T21:43:55.697Z,4.50
2019-02-17T21:46:26.008Z,4.40
2019-02-17T21:48:56.267Z,4.40
2019-02-17T21:51:26.564Z,4.30
2019-02-17T21:53:56.935Z,4.30
2019-02-17T21:56:28.152Z,4.60
2019-02-17T21:58:58.519Z,5.00
2019-02-17T22:01:28.915Z,5.20
2019-02-17T22:03:59.226Z,5.30
2019-02-17T22:06:33.417Z,5.20
2019-02-17T22:09:01.490Z,4.70
2019-02-17T22:11:33.463Z,4.30
2019-02-17T22:14:03.676Z,4.10
2019-02-17T22:16:33.888Z,4.10
2019-02-17T22:19:04.420Z,4.10
2019-02-17T22:21:35.208Z,4.00
2019-02-17T22:24:05.476Z,4.00
2019-02-17T22:26:35.610Z,4.30
2019-02-17T22:29:06.005Z,4.50
2019-02-17T22:31:36.249Z,4.40
2019-02-17T22:34:06.588Z,4.20
2019-02-17T22:36:43.476Z,3.90
2019-02-17T22:39:08.948Z,3.80
2019-02-17T22:41:39.195Z,3.60
2019-02-17T22:44:10.611Z,3.60
2019-02-17T22:46:40.785Z,3.50
2019-02-17T22:49:10.982Z,3.40
2019-02-17T22:51:42.352Z,3.50
2019-02-17T22:54:12.633Z,3.70
2019-02-17T22:56:42.855Z,3.70
2019-02-17T22:59:13.106Z,3.60
2019-02-17T23:01:43.387Z,3.50
2019-02-17T23:04:13.749Z,3.40
2019-02-17T23:06:53.562Z,3.30
2019-02-17T23:09:16.824Z,3.40
2019-02-17T23:11:47.093Z,3.40
2019-02-17T23:14:17.737Z,3.30
2019-02-17T23:16:47.936Z,3.40
2019-02-17T23:19:18.161Z,3.50
2019-02-17T23:21:48.483Z,3.50
2019-02-17T23:24:19.095Z,3.40
2019-02-17T23:26:49.376Z,3.30
2019-02-17T23:29:19.699Z,3.10
2019-02-17T23:31:49.846Z,3.20
2019-02-17T23:34:20.167Z,3.50
2019-02-17T23:36:50.389Z,3.20
2019-02-17T23:39:20.665Z,3.10
2019-02-17T23:41:50.886Z,3.10
2019-02-17T23:44:22.138Z,3.30
2019-02-17T23:46:52.365Z,3.30
2019-02-17T23:49:22.591Z,3.10
2019-02-17T23:51:52.927Z,3.20
2019-02-17T23:54:23.258Z,3.50
2019-02-17T23:56:53.530Z,3.60
2019-02-17T23:59:23.770Z,3.40
